ウラジオストク の空港の天気 - METARとTAF

ウラジオストク空港 ( UHWW / VVO ) - ロシア ウラジオストク
飛行場実況気象(Metar)
観測時間09/25 10:00 VLAT (09/25 00:00 UTC)
風向・風速静穏 0m/s
視程10km以上
天気現象
全天の8割程度の雲 雲底高度 1220m
気温13℃
湿度88%
気圧1029hPa
METARUHWW 250000Z 00000MPS 9999 BKN040 13/11 Q1029 R25L/0///70 NOSIG RMK QFE770
過去の天気等 Google飛行場航空写真 Wunderground天気予報

過去48時間のMETAR

飛行場予報(TAF)
発表時間: 9/25 08:55 VLAT (9/24 22:55 UTC)
予報対象時間: 25日10時 VLAT ~ 26日10時 VLAT
風向・風速南 3m/s
視程10km以上
全天の4割程度の雲 雲底高度 910m
25日10時 VLAT ~ 25日20時 VLAT に一時的に
風向・風速南 8m/s
全天の8割程度の積乱雲 雲底高度 610m
25日20時 VLAT ~ 25日22時 VLAT に徐々に
風向・風速南南東 3m/s
全天の8割程度の雲 雲底高度 490m
TAF UHWW 242255Z 2500/2524 18003MPS 9999 SCT030
TEMPO 2500/2510 19008MPS BKN020CB
BECMG 2510/2512 16003MPS BKN016